createdAt,value
2023-02-03T00:00:12.513Z,3.7
2023-02-03T00:01:26.835Z,4.2
2023-02-03T00:03:55.395Z,4.2
2023-02-03T00:05:09.800Z,3.9
2023-02-03T00:06:24.123Z,3.4
2023-02-03T00:07:38.409Z,4.4
2023-02-03T00:08:52.674Z,4.4
2023-02-03T00:10:07.088Z,3.9
2023-02-03T00:11:21.404Z,4.4
2023-02-03T00:12:35.697Z,3.9
2023-02-03T00:13:49.963Z,3.9
2023-02-03T00:15:04.373Z,3.9
2023-02-03T00:16:18.697Z,3.5
2023-02-03T00:17:32.991Z,3.2
2023-02-03T00:18:47.274Z,4.6
2023-02-03T00:20:01.677Z,3.5
2023-02-03T00:21:15.992Z,4
2023-02-03T00:22:30.269Z,3.5
2023-02-03T00:23:44.566Z,4.1
2023-02-03T00:24:58.972Z,3.7
2023-02-03T00:26:13.283Z,3.4
2023-02-03T00:27:27.566Z,4.4
2023-02-03T00:28:41.899Z,4.1
2023-02-03T00:29:56.321Z,3.5
2023-02-03T00:31:10.662Z,4
2023-02-03T00:32:24.000Z,4.2
2023-02-03T00:33:38.291Z,3.9
2023-02-03T00:34:52.691Z,3.5
2023-02-03T00:36:07.006Z,4.1
2023-02-03T00:37:21.303Z,3.5
2023-02-03T00:38:35.575Z,4.4
2023-02-03T00:39:49.981Z,4
2023-02-03T00:41:04.313Z,4.3
2023-02-03T00:42:18.579Z,4.4
2023-02-03T00:43:32.876Z,3.6
2023-02-03T00:44:47.279Z,4.4
2023-02-03T00:46:01.592Z,3.7
2023-02-03T00:47:15.878Z,4.2
2023-02-03T00:48:30.160Z,4.1
2023-02-03T00:50:58.892Z,4.3
2023-02-03T00:52:13.164Z,3.3
2023-02-03T00:53:27.449Z,3.5
2023-02-03T00:54:41.861Z,4.2
2023-02-03T00:55:56.181Z,3.6
2023-02-03T00:57:10.469Z,3.7
2023-02-03T00:58:24.735Z,4
2023-02-03T00:59:39.144Z,3.3
2023-02-03T01:00:53.476Z,4.4
2023-02-03T01:02:07.760Z,3.9
2023-02-03T01:04:36.502Z,3.5
2023-02-03T01:05:50.829Z,3.8
2023-02-03T01:07:04.187Z,4.3
2023-02-03T01:08:18.472Z,4
2023-02-03T01:09:32.866Z,3.4
2023-02-03T01:10:47.207Z,3.8
2023-02-03T01:12:01.480Z,4
2023-02-03T01:13:15.761Z,4
2023-02-03T01:14:30.161Z,3.7
2023-02-03T01:15:44.000Z,3.4
2023-02-03T01:16:58.780Z,4
2023-02-03T01:18:13.057Z,4.5
2023-02-03T01:19:27.463Z,3.9
2023-02-03T01:20:41.778Z,4
2023-02-03T01:23:10.356Z,3.9
2023-02-03T01:24:24.747Z,4
2023-02-03T01:25:39.074Z,3.3
2023-02-03T01:26:53.358Z,4.2
2023-02-03T01:28:07.627Z,4.1
2023-02-03T01:29:22.047Z,4.1
2023-02-03T01:30:36.375Z,4
2023-02-03T01:31:50.647Z,3.6
2023-02-03T01:33:04.936Z,4.2
2023-02-03T01:34:19.341Z,3.4
2023-02-03T01:35:33.658Z,3.4
2023-02-03T01:36:47.932Z,3.4
2023-02-03T01:38:02.278Z,4.2
2023-02-03T01:39:16.680Z,3.8
2023-02-03T01:40:31.028Z,3.2
2023-02-03T01:41:45.356Z,2.9
2023-02-03T01:42:58.721Z,3.1
2023-02-03T01:44:13.109Z,3.6
2023-02-03T01:45:27.440Z,3.5
2023-02-03T01:46:41.715Z,4.9
2023-02-03T01:47:56.009Z,3.8
2023-02-03T01:49:10.414Z,3.2
2023-02-03T01:50:24.739Z,3
2023-02-03T01:51:39.018Z,4.2
2023-02-03T01:52:53.290Z,3.2
2023-02-03T01:54:07.695Z,3.3
2023-02-03T01:55:22.030Z,3.8
2023-02-03T01:56:36.309Z,3.4
2023-02-03T01:57:50.583Z,3.3
2023-02-03T01:59:04.989Z,4.3
2023-02-03T02:00:19.311Z,3.5
2023-02-03T02:01:33.601Z,3.3
2023-02-03T02:02:47.885Z,3
2023-02-03T02:04:02.292Z,3.7
2023-02-03T02:05:16.613Z,2.9
2023-02-03T02:06:30.895Z,4.4
2023-02-03T02:07:45.172Z,3.2
2023-02-03T02:08:59.575Z,3.1
2023-02-03T02:10:13.910Z,3.4
2023-02-03T02:11:28.188Z,3.6
2023-02-03T02:12:42.460Z,3.3
2023-02-03T02:13:56.933Z,3.2
2023-02-03T02:15:11.272Z,3.7
2023-02-03T02:16:24.623Z,3.2
2023-02-03T02:17:38.889Z,3.3
2023-02-03T02:20:07.636Z,3.2
2023-02-03T02:21:21.911Z,3.7
2023-02-03T02:22:36.187Z,4
2023-02-03T02:23:50.593Z,3.6
2023-02-03T02:25:04.923Z,4.4
2023-02-03T02:26:19.202Z,4.2
2023-02-03T02:27:33.481Z,3.7
2023-02-03T02:28:47.885Z,3.5
2023-02-03T02:30:02.221Z,3.1
2023-02-03T02:31:16.496Z,3.4
2023-02-03T02:32:30.777Z,3.3
2023-02-03T02:33:45.178Z,3
2023-02-03T02:34:59.513Z,2.9
2023-02-03T02:36:13.776Z,2.9
2023-02-03T02:38:42.484Z,3.1
2023-02-03T02:39:56.811Z,3
2023-02-03T02:41:11.082Z,3.9
2023-02-03T02:42:25.362Z,3
2023-02-03T02:43:39.768Z,2.9
2023-02-03T02:44:54.079Z,3.3
2023-02-03T02:46:08.363Z,3
2023-02-03T02:47:22.000Z,3.4
2023-02-03T02:48:37.122Z,3.6
2023-02-03T02:49:51.456Z,3.5
2023-02-03T02:51:05.788Z,2.8
2023-02-03T02:52:20.136Z,3
2023-02-03T02:53:33.480Z,2.2
2023-02-03T02:54:47.800Z,3
2023-02-03T02:56:02.076Z,2.3
2023-02-03T02:57:16.360Z,2.9
2023-02-03T02:58:30.763Z,2.9
2023-02-03T02:59:45.092Z,3.5
2023-02-03T03:00:59.367Z,2.7
2023-02-03T03:02:13.655Z,2.3
2023-02-03T03:03:28.069Z,2.4
2023-02-03T03:04:42.387Z,3.3
2023-02-03T03:05:56.673Z,2.4
2023-02-03T03:07:10.945Z,2.8
2023-02-03T03:09:39.684Z,2.7
2023-02-03T03:10:53.951Z,2.4
2023-02-03T03:13:22.637Z,2.5
2023-02-03T03:14:36.965Z,2.9
2023-02-03T03:15:51.247Z,2.5
2023-02-03T03:17:05.537Z,2.2
2023-02-03T03:18:19.927Z,2.5
2023-02-03T03:19:34.255Z,2.5
2023-02-03T03:20:48.537Z,2.3
2023-02-03T03:22:02.819Z,2.8
2023-02-03T03:23:17.225Z,2.7
2023-02-03T03:24:31.614Z,3
2023-02-03T03:25:44.993Z,2.6
2023-02-03T03:26:59.336Z,3
2023-02-03T03:28:13.732Z,2.3
2023-02-03T03:29:28.079Z,2.4
2023-02-03T03:30:41.430Z,2.2
2023-02-03T03:31:55.707Z,2.4
2023-02-03T03:33:10.121Z,2.2
2023-02-03T03:34:24.433Z,2.3
2023-02-03T03:35:38.729Z,2.4
2023-02-03T03:36:53.007Z,2.7
2023-02-03T03:38:07.408Z,3.1
2023-02-03T03:39:21.737Z,2.8
2023-02-03T03:40:36.022Z,2
2023-02-03T03:41:50.292Z,2.8
2023-02-03T03:43:04.710Z,2.2
2023-02-03T03:44:19.022Z,1.7
2023-02-03T03:45:33.296Z,2.6
2023-02-03T03:46:47.579Z,3.5
2023-02-03T03:48:01.999Z,3.1
2023-02-03T03:49:16.322Z,2.2
2023-02-03T03:50:30.596Z,2.4
2023-02-03T03:51:44.872Z,2.4
2023-02-03T03:52:59.276Z,2.1
2023-02-03T03:54:13.611Z,2.3
2023-02-03T03:55:27.890Z,2.3
2023-02-03T03:56:42.167Z,2.6
2023-02-03T03:59:10.895Z,2.3
2023-02-03T04:00:25.182Z,2
2023-02-03T04:01:39.520Z,2.6
2023-02-03T04:02:53.916Z,2.1
2023-02-03T04:04:08.263Z,2
2023-02-03T04:05:21.618Z,2.2
2023-02-03T04:06:35.901Z,2.5
2023-02-03T04:07:50.300Z,2.6
2023-02-03T04:09:04.623Z,3.1
2023-02-03T04:10:18.898Z,2.8
2023-02-03T04:14:01.915Z,2.2
2023-02-03T04:15:16.201Z,2.5
2023-02-03T04:16:30.486Z,1.9
2023-02-03T04:17:44.877Z,2.4
2023-02-03T04:18:59.214Z,2.3
2023-02-03T04:20:13.483Z,2.5
2023-02-03T04:21:27.770Z,2.4
2023-02-03T04:22:42.181Z,2.6
2023-02-03T04:23:56.500Z,2.3
2023-02-03T04:25:10.779Z,2.3
2023-02-03T04:26:25.069Z,2.1
2023-02-03T04:27:39.480Z,2.4
2023-02-03T04:28:53.794Z,2.3
2023-02-03T04:30:08.225Z,2.1
2023-02-03T04:31:22.536Z,2
2023-02-03T04:32:36.817Z,2.1
2023-02-03T04:33:51.223Z,1.8
2023-02-03T04:35:05.558Z,1.7
2023-02-03T04:36:19.834Z,2.1
2023-02-03T04:37:34.110Z,1.9
2023-02-03T04:38:48.532Z,1.9
2023-02-03T04:40:02.852Z,2.1
2023-02-03T04:41:17.129Z,1.5
2023-02-03T04:42:31.403Z,1.7
2023-02-03T04:43:45.805Z,2.1
2023-02-03T04:45:00.142Z,2.6
2023-02-03T04:46:14.414Z,2.1
2023-02-03T04:47:28.700Z,2.4
2023-02-03T04:48:43.096Z,2.5
2023-02-03T04:49:57.421Z,2.2
2023-02-03T04:51:11.710Z,2
2023-02-03T04:52:25.986Z,2.3
2023-02-03T04:53:40.394Z,2.9
2023-02-03T04:54:54.725Z,1.8
2023-02-03T04:56:09.012Z,2
2023-02-03T04:57:23.283Z,2.5
2023-02-03T04:58:37.682Z,2
2023-02-03T04:59:52.003Z,2.4
2023-02-03T05:01:06.363Z,2.3
2023-02-03T05:02:19.734Z,2.1
2023-02-03T05:03:34.074Z,1.9
2023-02-03T05:04:47.473Z,2
2023-02-03T05:06:00.875Z,1.9
2023-02-03T05:07:15.212Z,1.8
2023-02-03T05:08:28.558Z,1.9
2023-02-03T05:09:42.844Z,2
2023-02-03T05:10:57.235Z,1.6
2023-02-03T05:12:11.565Z,1.9
2023-02-03T05:13:25.854Z,2.2
2023-02-03T05:14:40.126Z,2.1
2023-02-03T05:15:54.538Z,1.6
2023-02-03T05:17:08.866Z,1.5
2023-02-03T05:18:23.132Z,2.7
2023-02-03T05:20:51.824Z,1.7
2023-02-03T05:22:06.154Z,1.9
2023-02-03T05:23:20.441Z,1.7
2023-02-03T05:24:34.718Z,1.9
2023-02-03T05:25:49.120Z,1.7
2023-02-03T05:27:03.435Z,1.8
2023-02-03T05:28:17.735Z,1.7
2023-02-03T05:29:31.998Z,2.3
2023-02-03T05:30:46.414Z,2
2023-02-03T05:32:00.738Z,1.8
2023-02-03T05:33:15.025Z,1.6
2023-02-03T05:34:29.298Z,1.6
2023-02-03T05:35:43.707Z,1.9
2023-02-03T05:36:58.019Z,1.6
2023-02-03T05:38:12.315Z,1.7
2023-02-03T05:39:26.644Z,1.6
2023-02-03T05:40:41.061Z,1.9
2023-02-03T05:41:55.384Z,1.6
2023-02-03T05:43:08.748Z,2.2
2023-02-03T05:44:23.017Z,1.6
2023-02-03T05:45:37.421Z,2.4
2023-02-03T05:46:51.744Z,1.9
2023-02-03T05:48:06.036Z,1.8
2023-02-03T05:49:20.308Z,1.8
2023-02-03T05:50:34.715Z,2.5
2023-02-03T05:51:49.040Z,1.9
2023-02-03T05:53:03.332Z,1.6
2023-02-03T05:54:17.609Z,2.2
2023-02-03T05:55:32.008Z,1.8
2023-02-03T05:56:46.327Z,1.7
2023-02-03T05:58:00.619Z,1.7
2023-02-03T05:59:14.889Z,1.8
2023-02-03T06:00:29.310Z,2.4
2023-02-03T06:01:43.580Z,1.9
2023-02-03T06:02:57.867Z,2.3
2023-02-03T06:04:12.182Z,1.7
2023-02-03T06:05:26.474Z,1.8
2023-02-03T06:06:40.886Z,1.7
2023-02-03T06:07:55.209Z,1.9
2023-02-03T06:09:09.464Z,2
2023-02-03T06:10:23.735Z,1.8
2023-02-03T06:11:38.018Z,1.7
2023-02-03T06:14:06.773Z,1.7
2023-02-03T06:15:21.044Z,1.9
2023-02-03T06:16:34.406Z,1.6
2023-02-03T06:17:48.802Z,1.6
2023-02-03T06:19:03.123Z,2.1
2023-02-03T06:20:17.417Z,2.2
2023-02-03T06:21:31.687Z,1.5
2023-02-03T06:22:46.089Z,1.5
2023-02-03T06:24:00.397Z,1.8
2023-02-03T06:25:14.665Z,1.7
2023-02-03T06:26:28.953Z,1.8
2023-02-03T06:27:43.368Z,1.8
2023-02-03T06:28:57.608Z,1.8
2023-02-03T06:30:11.823Z,1.6
2023-02-03T06:32:40.288Z,1.8
2023-02-03T06:33:54.575Z,1.6
2023-02-03T06:35:08.830Z,1.7
2023-02-03T06:36:23.052Z,1.6
2023-02-03T06:37:37.279Z,1.8
2023-02-03T06:38:51.511Z,1.8
2023-02-03T06:40:05.855Z,2.1
2023-02-03T06:41:20.155Z,1.8
2023-02-03T06:42:34.436Z,2.2
2023-02-03T06:43:48.709Z,1.7
2023-02-03T06:45:03.123Z,1.4
2023-02-03T06:47:31.643Z,1.6
2023-02-03T06:48:44.985Z,1.6
2023-02-03T06:49:59.285Z,1.4
2023-02-03T06:51:13.556Z,1.7
2023-02-03T06:52:26.856Z,1.8
2023-02-03T06:53:41.076Z,1.6
2023-02-03T06:54:55.374Z,1.7
2023-02-03T06:56:09.613Z,1.5
2023-02-03T06:57:23.849Z,2
2023-02-03T06:58:38.067Z,1.6
2023-02-03T06:59:52.304Z,1.7
2023-02-03T07:01:06.599Z,1.9
2023-02-03T07:02:20.846Z,1.9
2023-02-03T07:03:35.077Z,1.5
2023-02-03T07:04:49.292Z,1.5
2023-02-03T07:06:03.523Z,1.9
2023-02-03T07:07:17.832Z,1.7
2023-02-03T07:09:46.293Z,1.7
2023-02-03T07:12:14.734Z,1.7
2023-02-03T07:13:29.034Z,1.9
2023-02-03T07:14:43.276Z,1.8
2023-02-03T07:15:57.511Z,1.8
2023-02-03T07:18:25.967Z,1.5
2023-02-03T07:20:54.508Z,1.9
2023-02-03T07:22:08.737Z,1.6
2023-02-03T07:23:23.009Z,2.2
2023-02-03T07:25:51.606Z,1.8
2023-02-03T07:27:05.883Z,1.8
2023-02-03T07:29:33.507Z,1.6
2023-02-03T07:30:47.787Z,1.8
2023-02-03T07:32:02.084Z,2.1
2023-02-03T07:33:15.440Z,2
2023-02-03T07:34:29.723Z,1.6
2023-02-03T07:35:44.019Z,2.1
2023-02-03T07:36:58.302Z,1.9
2023-02-03T07:38:11.596Z,2.1
2023-02-03T07:39:25.828Z,1.8
2023-02-03T07:40:40.112Z,1.7
2023-02-03T07:41:54.364Z,2.1
2023-02-03T07:43:08.590Z,1.7
2023-02-03T07:44:22.823Z,1.8
2023-02-03T07:45:37.043Z,2.1
2023-02-03T07:46:51.340Z,1.5
2023-02-03T07:48:05.577Z,1.8
2023-02-03T07:49:19.802Z,2.1
2023-02-03T07:50:34.038Z,2.2
2023-02-03T07:51:48.255Z,2.1
2023-02-03T07:53:02.570Z,1.8
2023-02-03T07:54:16.811Z,2.4
2023-02-03T07:55:31.030Z,2
2023-02-03T07:56:45.258Z,2.1
2023-02-03T07:57:59.480Z,1.9
2023-02-03T07:59:13.775Z,1.8
2023-02-03T08:00:28.015Z,2
2023-02-03T08:01:42.251Z,2.1
2023-02-03T08:02:56.482Z,2.5
2023-02-03T08:04:10.703Z,1.4
2023-02-03T08:05:25.009Z,1.8
2023-02-03T08:06:39.239Z,2.3
2023-02-03T08:07:53.462Z,2.1
2023-02-03T08:09:07.757Z,2.2
2023-02-03T08:11:35.369Z,2
2023-02-03T08:12:49.652Z,2
2023-02-03T08:14:03.930Z,1.9
2023-02-03T08:15:18.233Z,1.9
2023-02-03T08:16:32.521Z,2.1
2023-02-03T08:17:46.801Z,2.1
2023-02-03T08:19:00.103Z,2
2023-02-03T08:20:14.327Z,2.4
2023-02-03T08:21:28.619Z,1.9
2023-02-03T08:22:42.877Z,1.8
2023-02-03T08:23:57.092Z,2.4
2023-02-03T08:25:11.319Z,2.2
2023-02-03T08:26:25.557Z,1.9
2023-02-03T08:27:39.843Z,2.2
2023-02-03T08:28:54.084Z,2.1
2023-02-03T08:30:08.321Z,2.2
2023-02-03T08:31:22.540Z,2
2023-02-03T08:32:36.760Z,1.8
2023-02-03T08:33:51.062Z,2.1
2023-02-03T08:35:05.311Z,2.2
2023-02-03T08:36:19.530Z,1.9
2023-02-03T08:38:47.985Z,2.5
2023-02-03T08:40:02.297Z,2.1
2023-02-03T08:41:16.000Z,2.1
2023-02-03T08:42:30.762Z,1.8
2023-02-03T08:43:44.984Z,2.2
2023-02-03T08:46:13.508Z,2.1
2023-02-03T08:47:27.746Z,2
2023-02-03T08:48:41.980Z,1.8
2023-02-03T08:49:56.352Z,2.4
2023-02-03T08:51:10.573Z,2
2023-02-03T08:53:39.117Z,1.8
2023-02-03T08:54:53.334Z,2.4
2023-02-03T08:56:07.568Z,2.1
2023-02-03T08:57:21.800Z,2
2023-02-03T08:58:36.085Z,2
2023-02-03T08:59:50.341Z,1.6
2023-02-03T09:01:04.566Z,2.2
2023-02-03T09:02:18.797Z,2
2023-02-03T09:03:33.016Z,1.9
2023-02-03T09:04:47.313Z,1.4
2023-02-03T09:06:01.561Z,2
2023-02-03T09:07:15.786Z,2.2
2023-02-03T09:08:30.001Z,2.5
2023-02-03T09:09:44.233Z,2.1
2023-02-03T09:10:58.539Z,2.2
2023-02-03T09:12:12.775Z,2.1
2023-02-03T09:13:27.007Z,1.7
2023-02-03T09:14:41.219Z,2.4
2023-02-03T09:17:09.762Z,1.8
2023-02-03T09:18:24.002Z,2
2023-02-03T09:19:38.220Z,2.1
2023-02-03T09:22:06.789Z,2.3
2023-02-03T09:25:49.665Z,2
2023-02-03T09:27:02.992Z,2.1
2023-02-03T09:28:17.295Z,1.9
2023-02-03T09:29:31.582Z,2.2
2023-02-03T09:30:45.863Z,2.1
2023-02-03T09:32:00.144Z,1.9
2023-02-03T09:33:14.419Z,2.2
2023-02-03T09:34:28.724Z,2
2023-02-03T09:35:43.001Z,2
2023-02-03T09:38:10.533Z,2
2023-02-03T09:39:24.833Z,1.9
2023-02-03T09:40:39.063Z,1.9
2023-02-03T09:41:53.305Z,1.6
2023-02-03T09:43:07.525Z,2
2023-02-03T09:44:21.754Z,1.6
2023-02-03T09:45:36.049Z,2
2023-02-03T09:46:50.297Z,2.1
2023-02-03T09:48:04.521Z,1.9
2023-02-03T09:49:18.753Z,2
2023-02-03T09:50:32.960Z,1.5
2023-02-03T09:51:47.260Z,1.9
2023-02-03T09:53:01.518Z,1.7
2023-02-03T09:54:15.736Z,2
2023-02-03T09:56:44.195Z,2.1
2023-02-03T09:57:58.488Z,1.6
2023-02-03T09:59:12.729Z,2
2023-02-03T10:00:26.951Z,1.8
2023-02-03T10:01:41.190Z,1.7
2023-02-03T10:02:55.420Z,1.5
2023-02-03T10:04:09.711Z,1.9
2023-02-03T10:05:23.946Z,1.5
2023-02-03T10:07:52.467Z,2
2023-02-03T10:09:05.799Z,2.1
2023-02-03T10:12:48.642Z,1.7
2023-02-03T10:14:02.938Z,1.8
2023-02-03T10:15:17.237Z,1.8
2023-02-03T10:16:31.503Z,2.4
2023-02-03T10:17:45.803Z,2
2023-02-03T10:19:00.070Z,2
2023-02-03T10:20:14.365Z,1.8
2023-02-03T10:21:28.657Z,1.7
2023-02-03T10:22:42.944Z,1.5
2023-02-03T10:23:56.299Z,1.7
2023-02-03T10:25:09.632Z,1.6
2023-02-03T10:28:52.500Z,1.6
2023-02-03T10:30:06.778Z,1.6
2023-02-03T10:31:21.082Z,1.7
2023-02-03T10:32:35.352Z,1.6
2023-02-03T10:33:48.717Z,1.8
2023-02-03T10:35:02.033Z,1.6
2023-02-03T10:36:16.334Z,2.3
2023-02-03T10:37:30.613Z,1.4
2023-02-03T10:38:43.955Z,1.7
2023-02-03T10:39:58.257Z,1.9
2023-02-03T10:41:12.549Z,2.2
2023-02-03T10:42:25.889Z,1.6
2023-02-03T10:43:39.229Z,1.9
2023-02-03T10:46:07.792Z,1.5
2023-02-03T10:47:22.073Z,1.8
2023-02-03T10:48:36.367Z,1.6
2023-02-03T10:51:04.950Z,1.7
2023-02-03T10:52:19.239Z,1.7
2023-02-03T10:53:32.519Z,1.7
2023-02-03T10:54:46.830Z,1.5
2023-02-03T10:56:01.070Z,1.5
2023-02-03T10:58:29.530Z,2.1
2023-02-03T10:59:43.745Z,1.8
2023-02-03T11:00:58.045Z,1.9
2023-02-03T11:02:12.282Z,1.5
2023-02-03T11:03:26.517Z,1.7
2023-02-03T11:04:40.734Z,1.6
2023-02-03T11:05:54.978Z,1.5
2023-02-03T11:08:23.504Z,1.4
2023-02-03T11:09:37.727Z,1.4
2023-02-03T11:10:51.959Z,1.7
2023-02-03T11:12:06.190Z,1.4
2023-02-03T11:13:20.497Z,1.2
2023-02-03T11:14:34.740Z,1.5
2023-02-03T11:15:48.958Z,1.3
2023-02-03T11:17:03.193Z,1.4
2023-02-03T11:18:17.412Z,1.7
2023-02-03T11:19:31.709Z,1.4
2023-02-03T11:20:45.950Z,1.1
2023-02-03T11:22:00.181Z,1.7
2023-02-03T11:23:14.398Z,1.5
2023-02-03T11:24:28.695Z,1.9
2023-02-03T11:25:42.992Z,1.5
2023-02-03T11:26:57.277Z,1.2
2023-02-03T11:28:10.608Z,1.3
2023-02-03T11:29:24.897Z,1.8
2023-02-03T11:30:39.193Z,1.8
2023-02-03T11:31:53.465Z,1.4
2023-02-03T11:33:07.746Z,1.5
2023-02-03T11:34:21.049Z,1.9
2023-02-03T11:35:35.360Z,2
2023-02-03T11:36:49.599Z,1.4
2023-02-03T11:38:03.810Z,1.7
2023-02-03T11:39:18.055Z,1.6
2023-02-03T11:40:32.268Z,1.5
2023-02-03T11:41:46.581Z,1.2
2023-02-03T11:43:00.808Z,1.3
2023-02-03T11:44:15.041Z,1.6
2023-02-03T11:45:29.263Z,1.2
2023-02-03T11:46:43.495Z,1.5
2023-02-03T11:47:57.799Z,1.3
2023-02-03T11:49:12.030Z,1.2
2023-02-03T11:50:26.265Z,1.7
2023-02-03T11:51:40.484Z,2.3
2023-02-03T11:52:54.723Z,1.6
2023-02-03T11:54:09.004Z,1.4
2023-02-03T11:55:23.256Z,1.5
2023-02-03T11:56:37.487Z,1.3
2023-02-03T11:57:51.714Z,1.3
2023-02-03T11:59:05.944Z,1.4
2023-02-03T12:00:20.229Z,1.4
2023-02-03T12:01:34.485Z,1.3
2023-02-03T12:02:48.701Z,1.3
2023-02-03T12:04:02.938Z,1.4
2023-02-03T12:05:17.223Z,1.5
2023-02-03T12:06:31.517Z,1.6
2023-02-03T12:07:45.787Z,1.4
2023-02-03T12:08:59.097Z,1.6
2023-02-03T12:10:13.326Z,1.8
2023-02-03T12:11:27.615Z,1.6
2023-02-03T12:12:41.853Z,1.5
2023-02-03T12:13:56.086Z,1.5
2023-02-03T12:15:10.322Z,1.3
2023-02-03T12:16:24.544Z,1.7
2023-02-03T12:17:38.838Z,1.2
2023-02-03T12:18:53.088Z,1.2
2023-02-03T12:20:07.314Z,1.2
2023-02-03T12:21:21.532Z,1.6
2023-02-03T12:22:35.749Z,1.2
2023-02-03T12:23:50.068Z,1.3
2023-02-03T12:25:04.303Z,1.9
2023-02-03T12:26:18.520Z,1.3
2023-02-03T12:27:32.752Z,1.4
2023-02-03T12:28:46.982Z,1.2
2023-02-03T12:30:01.289Z,1.4
2023-02-03T12:31:15.514Z,1.3
2023-02-03T12:32:29.751Z,1.4
2023-02-03T12:33:43.971Z,1.3
2023-02-03T12:34:58.201Z,1.2
2023-02-03T12:36:12.495Z,1.4
2023-02-03T12:37:26.739Z,1.3
2023-02-03T12:38:40.970Z,1.8
2023-02-03T12:39:55.247Z,1.6
2023-02-03T12:41:08.596Z,1.5
2023-02-03T12:42:22.866Z,1.2
2023-02-03T12:43:36.220Z,1.5
2023-02-03T12:44:49.551Z,2
2023-02-03T12:46:03.828Z,1.4
2023-02-03T12:47:17.123Z,1.6
2023-02-03T12:48:31.366Z,1.5
2023-02-03T12:49:45.664Z,1.7
2023-02-03T12:50:59.900Z,1.6
2023-02-03T12:52:14.131Z,1.5
2023-02-03T12:53:28.358Z,1.5
2023-02-03T12:54:42.582Z,1.5
2023-02-03T12:57:11.126Z,1.8
2023-02-03T12:58:25.354Z,2
2023-02-03T12:59:39.584Z,1.5
2023-02-03T13:00:53.795Z,1.4
2023-02-03T13:02:08.099Z,1.7
2023-02-03T13:03:22.352Z,1.4
2023-02-03T13:04:36.567Z,1.6
2023-02-03T13:05:50.789Z,1.5
2023-02-03T13:07:05.027Z,1.5
2023-02-03T13:08:19.332Z,1.5
2023-02-03T13:09:33.571Z,1.7
2023-02-03T13:10:47.783Z,1.3
2023-02-03T13:12:02.026Z,1.6
2023-02-03T13:13:16.247Z,1.8
2023-02-03T13:14:30.539Z,1.9
2023-02-03T13:15:44.794Z,1.4
2023-02-03T13:16:59.010Z,1.5
2023-02-03T13:18:13.304Z,1
2023-02-03T13:19:26.622Z,1.4
2023-02-03T13:20:40.904Z,1.8
2023-02-03T13:21:54.204Z,1.5
2023-02-03T13:23:08.428Z,1.8
2023-02-03T13:24:22.736Z,1
2023-02-03T13:25:36.980Z,1.3
2023-02-03T13:26:51.195Z,1.5
2023-02-03T13:28:05.438Z,1.3
2023-02-03T13:29:19.652Z,1.5
2023-02-03T13:30:33.957Z,1.3
2023-02-03T13:31:48.208Z,1.3
2023-02-03T13:33:02.421Z,1.1
2023-02-03T13:34:16.657Z,1.6
2023-02-03T13:35:30.878Z,1.9
2023-02-03T13:36:45.187Z,1.7
2023-02-03T13:37:59.414Z,1.3
2023-02-03T13:39:13.640Z,1.7
2023-02-03T13:40:27.870Z,1.2
2023-02-03T13:41:42.103Z,1.2
2023-02-03T13:42:56.401Z,1.4
2023-02-03T13:44:10.635Z,1.3
2023-02-03T13:45:24.877Z,1.3
2023-02-03T13:46:39.097Z,1.5
2023-02-03T13:47:53.314Z,1.7
2023-02-03T13:49:07.613Z,1.6
2023-02-03T13:50:21.865Z,1.9
2023-02-03T13:51:36.093Z,1.3
2023-02-03T13:52:50.383Z,1.4
2023-02-03T13:54:03.703Z,1.9
2023-02-03T13:55:17.986Z,1.8
2023-02-03T13:56:32.280Z,1.6
2023-02-03T13:57:46.557Z,1.1
2023-02-03T13:59:00.838Z,1.5
2023-02-03T14:00:15.150Z,1.3
2023-02-03T14:01:29.415Z,1.3
2023-02-03T14:02:42.711Z,1.7
2023-02-03T14:03:56.945Z,1.6
2023-02-03T14:05:11.247Z,1.2
2023-02-03T14:06:25.484Z,1.5
2023-02-03T14:07:39.715Z,1.5
2023-02-03T14:08:53.933Z,1.2
2023-02-03T14:10:08.159Z,1.5
2023-02-03T14:11:22.464Z,1.6
2023-02-03T14:12:36.708Z,1.4
2023-02-03T14:13:50.929Z,1.5
2023-02-03T14:15:05.170Z,1.9
2023-02-03T14:16:19.382Z,1.4
2023-02-03T14:17:33.698Z,1.5
2023-02-03T14:18:47.921Z,1.5
2023-02-03T14:20:02.157Z,1.3
2023-02-03T14:21:16.391Z,2.1
2023-02-03T14:22:30.611Z,1
2023-02-03T14:24:59.150Z,1.5
2023-02-03T14:26:13.373Z,1.8
2023-02-03T14:27:27.604Z,1.5
2023-02-03T14:28:41.821Z,1.3
2023-02-03T14:29:56.131Z,1.9
2023-02-03T14:31:10.379Z,1.2
2023-02-03T14:32:24.592Z,1.4
2023-02-03T14:33:38.890Z,1.1
2023-02-03T14:34:52.241Z,1.5
2023-02-03T14:36:06.527Z,1.3
2023-02-03T14:37:19.854Z,1
2023-02-03T14:39:48.442Z,1.5
2023-02-03T14:41:02.726Z,1.1
2023-02-03T14:42:17.020Z,1
2023-02-03T14:43:30.303Z,1.6
2023-02-03T14:44:44.618Z,1.2
2023-02-03T14:45:58.840Z,1.9
2023-02-03T14:47:13.078Z,1.3
2023-02-03T14:48:27.310Z,1.3
2023-02-03T14:49:41.531Z,2.1
2023-02-03T14:50:55.827Z,1.3
2023-02-03T14:52:10.065Z,1.4
2023-02-03T14:53:24.291Z,1
2023-02-03T14:55:52.745Z,1.4
2023-02-03T14:57:07.053Z,1.4
2023-02-03T14:58:21.283Z,1.3
2023-02-03T14:59:35.517Z,1.4
2023-02-03T15:00:49.748Z,1.5
2023-02-03T15:02:03.979Z,1.5
2023-02-03T15:03:18.265Z,1.3
2023-02-03T15:04:32.502Z,1.6
2023-02-03T15:05:46.736Z,1.6
2023-02-03T15:07:00.965Z,1.7
2023-02-03T15:08:15.201Z,1.5
2023-02-03T15:09:29.483Z,1.7
2023-02-03T15:10:43.732Z,1.3
2023-02-03T15:11:57.959Z,1.5
2023-02-03T15:13:12.181Z,1.1
2023-02-03T15:14:26.468Z,1.4
2023-02-03T15:15:40.771Z,1.7
2023-02-03T15:16:55.050Z,1.5
2023-02-03T15:18:08.413Z,1.3
2023-02-03T15:19:21.731Z,1.1
2023-02-03T15:21:50.308Z,1.5
2023-02-03T15:23:04.597Z,1.5
2023-02-03T15:24:18.865Z,1.4
2023-02-03T15:26:47.458Z,1.5
2023-02-03T15:28:01.737Z,1.3
2023-02-03T15:29:16.022Z,1.1
2023-02-03T15:30:30.314Z,1.2
2023-02-03T15:32:58.890Z,1.6
2023-02-03T15:34:12.248Z,1.3
2023-02-03T15:35:25.572Z,1.5
2023-02-03T15:36:39.859Z,1
2023-02-03T15:39:08.428Z,1.2
2023-02-03T15:41:37.018Z,1.5
2023-02-03T15:44:05.576Z,1.3
2023-02-03T15:45:19.856Z,1
2023-02-03T15:46:34.137Z,1.7
2023-02-03T15:49:02.729Z,1.8
2023-02-03T15:50:17.002Z,1.2
2023-02-03T15:51:30.353Z,0.9
2023-02-03T15:52:44.645Z,1.3
2023-02-03T15:55:13.200Z,1.1
2023-02-03T15:56:27.487Z,1.2
2023-02-03T15:57:40.780Z,1.2
2023-02-03T15:58:55.034Z,1.5
2023-02-03T16:00:09.257Z,1.6
2023-02-03T16:01:23.479Z,1.5
2023-02-03T16:02:37.717Z,1.4
2023-02-03T16:03:52.019Z,1.2
2023-02-03T16:05:06.241Z,1.3
2023-02-03T16:07:34.711Z,1.2
2023-02-03T16:08:48.937Z,1.5
2023-02-03T16:10:03.231Z,1.3
2023-02-03T16:11:17.473Z,1.7
2023-02-03T16:12:31.689Z,1.6
2023-02-03T16:13:45.915Z,1.4
2023-02-03T16:15:00.142Z,1.9
2023-02-03T16:16:14.454Z,1.4
2023-02-03T16:17:28.702Z,1.2
2023-02-03T16:18:42.919Z,1.6
2023-02-03T16:19:57.146Z,1.2
2023-02-03T16:21:11.369Z,1.3
2023-02-03T16:22:25.666Z,1.1
2023-02-03T16:23:39.905Z,1.6
2023-02-03T16:24:54.142Z,1.5
2023-02-03T16:26:08.362Z,1.4
2023-02-03T16:27:22.599Z,2
2023-02-03T16:28:36.945Z,1.1
2023-02-03T16:29:51.233Z,1.3
2023-02-03T16:31:04.596Z,1.1
2023-02-03T16:32:18.876Z,1.1
2023-02-03T16:33:33.171Z,1.6
2023-02-03T16:34:47.444Z,1.4
2023-02-03T16:36:00.789Z,1.4
2023-02-03T16:37:15.068Z,1.6
2023-02-03T16:39:43.650Z,1.4
2023-02-03T16:40:57.009Z,1
2023-02-03T16:43:24.626Z,1.7
2023-02-03T16:44:38.906Z,1
2023-02-03T16:45:52.206Z,1.5
2023-02-03T16:47:06.545Z,0.9
2023-02-03T16:48:20.881Z,1.5
2023-02-03T16:49:35.156Z,1.1
2023-02-03T16:50:49.377Z,1.4
2023-02-03T16:52:03.731Z,1
2023-02-03T16:53:18.056Z,0.9
2023-02-03T16:54:32.353Z,1.9
2023-02-03T16:55:46.624Z,1.5
2023-02-03T16:57:01.028Z,1.5
2023-02-03T16:58:15.366Z,1.7
2023-02-03T16:59:29.649Z,1.1
2023-02-03T17:00:43.916Z,1.2
2023-02-03T17:01:58.271Z,1.1
2023-02-03T17:03:12.520Z,1.4
2023-02-03T17:04:26.748Z,1.4
2023-02-03T17:05:40.976Z,1.6
2023-02-03T17:06:55.187Z,1.7
2023-02-03T17:08:09.495Z,1.3
2023-02-03T17:09:23.746Z,1.7
2023-02-03T17:10:38.010Z,1.3
2023-02-03T17:11:52.295Z,1.4
2023-02-03T17:13:06.588Z,1.2
2023-02-03T17:14:20.979Z,1.6
2023-02-03T17:15:35.300Z,1.5
2023-02-03T17:16:49.620Z,1.2
2023-02-03T17:18:03.018Z,1.2
2023-02-03T17:19:17.342Z,1.6
2023-02-03T17:20:31.639Z,1.9
2023-02-03T17:21:44.998Z,1.5
2023-02-03T17:22:59.401Z,1
2023-02-03T17:24:13.721Z,1.8
2023-02-03T17:25:27.999Z,1.2
2023-02-03T17:26:42.293Z,1.3
2023-02-03T17:27:56.693Z,1.7
2023-02-03T17:29:11.014Z,1.5
2023-02-03T17:30:25.295Z,1.7
2023-02-03T17:31:39.569Z,1.6
2023-02-03T17:32:53.989Z,1.2
2023-02-03T17:34:08.312Z,1.3
2023-02-03T17:35:22.585Z,1.2
2023-02-03T17:36:36.860Z,1.3
2023-02-03T17:37:51.227Z,1.7
2023-02-03T17:53:57.348Z,1.8
2023-02-03T17:55:11.687Z,1.6
2023-02-03T17:56:25.026Z,1.6
2023-02-03T17:57:39.306Z,1.7
2023-02-03T17:58:53.710Z,1.3
2023-02-03T18:00:08.007Z,1
2023-02-03T18:01:22.269Z,1.4
2023-02-03T18:02:36.596Z,1.7
2023-02-03T18:03:50.877Z,1.3
2023-02-03T18:05:05.297Z,1.2
2023-02-03T18:06:19.617Z,1.2
2023-02-03T18:07:33.890Z,1.5
2023-02-03T18:08:48.174Z,1.7
2023-02-03T18:10:02.579Z,1.9
2023-02-03T18:11:16.909Z,1.3
2023-02-03T18:12:31.192Z,1.1
2023-02-03T18:13:45.465Z,1.3
2023-02-03T18:14:59.865Z,1.3
2023-02-03T18:16:14.165Z,1.5
2023-02-03T18:17:28.447Z,1.6
2023-02-03T18:18:42.722Z,1.2
2023-02-03T18:19:57.141Z,1.3
2023-02-03T18:21:11.457Z,1.1
2023-02-03T18:22:25.739Z,1.2
2023-02-03T18:23:40.017Z,1.5
2023-02-03T18:24:54.428Z,1
2023-02-03T18:26:08.759Z,1.5
2023-02-03T18:27:23.100Z,1.4
2023-02-03T18:28:36.490Z,0.8
2023-02-03T18:29:50.897Z,1
2023-02-03T18:31:05.225Z,1.1